Latest Weather Observations for PORTABLE RFSNSW53

IDN60801

Issued at 3:33 pm EST Wednesday 14 April 2021 (issued every 10 minutes, with the page automatically refreshed every 10 minutes)

About weather observations | Map of weather stations | Latest weather observations for NSW | Other Formats
Station Details ID: 250096 Name: PORTABLE RFSNSW53 Lat: -34.44 Lon: 146.90 Height: 205.0 m

Portable automatic weather stations (PAWS) are operated by other organisations, such as Fire and Emergency Services, and are included here by agreement. Portable stations may be deployed to a location for a short period and their location may be subject to change without notice. Wind observations from these stations are provided from heights of either three (3) or ten (10) metres above ground level (AGL).

Data from the previous 72 hours. | See also: Recent months for locations in New South Wales
Date/Time
EST
Temp
°C
App
Temp
°C
Dew
Point
°C
Rel
Hum
%
Delta-T
°C
Wind Press
QNH
hPa
Press
MSL
hPa
Rain since
9am
mm
Dir  Spd
km/h
Gust
km/h
Spd
kts
Gust
kts
14/03:20pm 23.9 18.2 6.7 33 9.0 WSW 26 32 14 17 - - 0.0
14/03:10pm 24.6 18.0 -0.5 19 11.5 W 24 28 13 15 - - 0.0
14/03:00pm 24.8 18.2 -0.3 19 11.6 W 24 33 13 18 - - 0.0
14/02:50pm 25.1 17.8 -0.2 19 11.7 W 28 32 15 17 - - 0.0
14/02:40pm 26.0 18.3 0.1 18 12.2 W 30 35 16 19 - - 0.0
14/02:30pm 25.7 17.3 -0.7 17 12.2 W 33 35 18 19 - - 0.0
14/02:20pm 26.2 18.0 -0.7 17 12.5 WNW 32 39 17 21 - - 0.0
14/02:10pm 26.3 19.3 -0.2 17 12.4 WNW 26 32 14 17 - - 0.0
14/02:00pm 26.1 19.3 0.5 18 12.1 W 26 30 14 16 - - 0.0
14/01:50pm 25.6 19.1 0.5 19 11.8 WNW 24 32 13 17 - - 0.0
14/01:40pm 26.2 19.7 0.5 18 12.2 NW 24 32 13 17 - - 0.0
14/01:30pm 25.4 18.9 0.5 19 11.7 WNW 24 28 13 15 - - 0.0
14/01:20pm 24.5 18.0 0.5 20 11.2 NW 24 26 13 14 - - 0.0
14/01:10pm 24.4 17.2 1.0 21 11.0 NW 28 32 15 17 - - 0.0
14/01:00pm 24.7 17.1 0.8 21 11.2 WNW 30 35 16 19 - - 0.0
14/12:50pm 25.2 17.7 0.9 20 11.5 NW 30 33 16 18 - - 0.0
14/12:40pm 24.6 17.1 1.2 21 11.1 NW 30 35 16 19 - - 0.0
14/12:30pm 23.8 17.5 1.4 23 10.6 NW 24 30 13 16 - - 0.0
14/12:20pm 23.1 16.4 1.4 24 10.2 NW 26 30 14 16 - - 0.0
14/12:10pm 22.4 16.4 1.3 25 9.9 NNW 22 26 12 14 - - 0.0
14/12:00pm 21.9 16.0 1.4 25 9.6 NNW 22 26 12 14 - - 0.0
14/11:50am 21.9 14.8 1.3 25 9.6 NW 28 32 15 17 - - 0.0
14/11:40am 22.3 15.2 1.4 25 9.8 NW 28 30 15 16 - - 0.0
14/11:30am 21.8 15.5 1.3 25 9.5 NW 24 30 13 16 - - 0.0
14/11:20am 21.3 15.4 1.7 27 9.1 NW 22 26 12 14 - - 0.0
14/11:10am 20.8 14.1 1.6 28 8.9 NNW 26 28 14 15 - - 0.0
14/11:00am 20.4 14.1 1.5 28 8.7 NNW 24 28 13 15 - - 0.0
14/10:50am 20.2 14.3 1.4 28 8.6 NNW 22 26 12 14 - - 0.0
14/10:40am 20.1 14.2 1.4 28 8.6 NNW 22 24 12 13 - - 0.0
14/10:30am 20.1 14.7 1.4 28 8.6 NNW 19 22 10 12 - - 0.0
14/10:20am 19.8 14.4 1.5 29 8.4 NW 19 24 10 13 - - 0.0
14/10:10am 19.8 14.2 1.4 29 8.4 NNW 20 26 11 14 - - 0.0
14/10:00am 19.9 14.3 1.3 29 8.5 NW 20 24 11 13 - - 0.0
14/09:50am 20.1 14.7 1.4 28 8.6 NW 19 20 10 11 - - 0.0
14/09:40am 19.9 15.2 1.1 28 8.6 NW 15 19 8 10 - - 0.0
14/09:30am 19.8 14.8 1.1 28 8.5 NNW 17 20 9 11 - - 0.0
14/09:20am 19.7 14.1 1.0 28 8.5 NNW 20 24 11 13 - - 0.0
14/09:10am 19.6 14.2 1.3 29 8.4 NNW 19 24 10 13 - - 0.0
14/09:00am 19.3 14.7 1.4 30 8.2 N 15 17 8 9 - - 0.0
14/08:50am 19.2 14.7 2.2 32 7.9 N 15 17 8 9 - - 0.0
14/08:40am 18.7 14.2 2.3 33 7.6 N 15 17 8 9 - - 0.0
14/08:30am 18.4 13.9 2.2 34 7.5 N 15 15 8 8 - - 0.0
14/08:20am 18.2 13.7 2.1 34 7.4 N 15 15 8 8 - - 0.0
14/07:30am 17.3 13.6 2.2 36 6.9 N 11 13 6 7 - - 0.0
14/07:20am 17.2 13.1 2.1 36 6.9 N 13 13 7 7 - - 0.0
14/07:10am 17.1 13.3 2.0 36 6.9 N 11 13 6 7 - - 0.0
14/07:00am 17.0 13.3 2.1 36 6.8 N 11 13 6 7 - - 0.0
14/06:50am 16.9 13.1 2.0 36 6.8 N 11 13 6 7 - - 0.0
14/06:40am 16.8 12.7 2.1 37 6.7 N 13 15 7 8 - - 0.0
14/06:30am 16.8 12.7 2.2 37 6.6 N 13 13 7 7 - - 0.0
14/06:20am 16.7 13.0 2.2 37 6.6 N 11 13 6 7 - - 0.0
14/06:10am 16.7 12.6 2.4 38 6.5 N 13 13 7 7 - - 0.0
14/06:00am 16.7 12.6 2.2 37 6.6 N 13 15 7 8 - - 0.0
14/05:50am 16.4 12.7 2.2 38 6.4 N 11 13 6 7 - - 0.0
14/05:40am 16.2 12.5 2.6 40 6.2 N 11 11 6 6 - - 0.0
14/05:30am 16.0 12.7 2.4 40 6.2 N 9 9 5 5 - - 0.0
14/05:20am 16.0 12.7 2.6 40 6.1 N 9 9 5 5 - - 0.0
14/05:10am 16.1 12.4 2.4 39 6.2 N 11 11 6 6 - - 0.0
14/05:00am 15.9 12.2 2.5 40 6.1 N 11 11 6 6 - - 0.0
14/04:50am 16.3 12.6 2.4 39 6.3 N 11 11 6 6 - - 0.0
14/04:40am 16.6 13.3 2.4 38 6.5 N 9 11 5 6 - - 0.0
14/04:30am 16.9 13.2 2.3 37 6.7 N 11 13 6 7 - - 0.0
14/04:20am 17.1 13.0 2.2 36 6.8 N 13 13 7 7 - - 0.0
14/04:10am 17.2 13.1 2.3 36 6.8 N 13 13 7 7 - - 0.0
14/04:00am 17.4 13.7 2.2 36 6.9 N 11 13 6 7 - - 0.0
14/03:50am 17.5 13.0 2.0 35 7.1 N 15 17 8 9 - - 0.0
14/03:40am 17.5 13.4 2.1 35 7.0 N 13 17 7 9 - - 0.0
14/03:30am 17.5 13.4 2.1 35 7.0 N 13 15 7 8 - - 0.0
14/03:20am 17.7 13.2 2.2 35 7.1 N 15 17 8 9 - - 0.0
14/03:10am 17.7 13.2 2.1 35 7.1 N 15 17 8 9 - - 0.0
14/03:00am 17.8 13.3 2.1 35 7.2 N 15 17 8 9 - - 0.0
14/02:50am 17.8 13.3 2.0 34 7.2 N 15 19 8 10 - - 0.0
14/02:40am 17.8 12.5 1.8 34 7.3 N 19 20 10 11 - - 0.0
14/02:30am 17.7 12.4 1.9 34 7.2 N 19 20 10 11 - - 0.0
14/02:20am 17.8 12.9 2.3 35 7.1 N 17 19 9 10 - - 0.0
14/02:10am 17.9 12.9 1.6 33 7.4 N 17 19 9 10 - - 0.0
14/02:00am 18.0 13.4 1.7 33 7.4 N 15 17 8 9 - - 0.0
14/01:50am 18.1 13.1 1.6 33 7.5 N 17 20 9 11 - - 0.0
14/01:40am 18.2 13.2 1.4 32 7.6 N 17 19 9 10 - - 0.0
14/01:30am 18.2 12.8 1.5 32 7.6 N 19 20 10 11 - - 0.0
14/01:20am 18.3 12.9 1.4 32 7.7 N 19 20 10 11 - - 0.0
14/01:10am 18.3 13.3 1.3 32 7.7 N 17 20 9 11 - - 0.0
14/01:00am 18.3 13.3 1.1 31 7.7 N 17 22 9 12 - - 0.0
14/12:50am 18.2 13.6 1.7 33 7.5 N 15 17 8 9 - - 0.0
14/12:40am 18.1 13.9 1.8 33 7.4 N 13 15 7 8 - - 0.0
14/12:30am 17.8 14.1 2.2 35 7.1 N 11 13 6 7 - - 0.0
14/12:20am 17.7 14.1 2.7 36 6.9 N 11 11 6 6 - - 0.0
14/12:10am 17.8 14.2 2.7 36 7.0 N 11 11 6 6 - - 0.0
14/12:00am 17.8 14.2 2.7 36 7.0 N 11 13 6 7 - - 0.0
 
Date/Time
EST
Temp
°C
App
Temp
°C
Dew
Point
°C
Rel
Hum
%
Delta-T
°C
Wind Press
QNH
hPa
Press
MSL
hPa
Rain since
9am
mm
Dir  Spd
km/h
Gust
km/h
Spd
kts
Gust
kts
13/11:50pm 17.8 13.8 2.6 36 7.0 N 13 15 7 8 - - 0.0
13/11:40pm 17.7 13.7 3.0 37 6.8 N 13 15 7 8 - - 0.0
13/11:30pm 17.9 13.9 2.7 36 7.0 N 13 15 7 8 - - 0.0
13/11:20pm 18.0 14.0 2.8 36 7.1 NNE 13 15 7 8 - - 0.0
13/11:10pm 18.1 14.0 2.4 35 7.2 NNE 13 15 7 8 - - 0.0
13/11:00pm 18.1 14.1 2.6 35 7.2 NNE 13 13 7 7 - - 0.0
13/10:50pm 18.2 14.2 2.7 35 7.2 NNE 13 15 7 8 - - 0.0
13/10:40pm 18.3 14.3 2.7 35 7.3 N 13 15 7 8 - - 0.0
13/10:30pm 18.5 14.4 2.5 34 7.4 NNE 13 15 7 8 - - 0.0
13/10:20pm 18.4 14.0 2.6 35 7.3 NNE 15 15 8 8 - - 0.0
13/10:10pm 18.2 14.2 2.6 35 7.2 NNE 13 15 7 8 - - 0.0
13/10:00pm 17.9 14.3 2.8 36 7.0 NNE 11 11 6 6 - - 0.0
13/09:50pm 17.6 14.1 3.4 38 6.7 NNE 11 11 6 6 - - 0.0
13/09:40pm 18.0 14.5 3.6 38 6.8 NNE 11 13 6 7 - - 0.0
13/09:30pm 18.2 14.6 2.8 35 7.2 NNE 11 13 6 7 - - 0.0
13/09:20pm 18.1 14.9 2.9 36 7.1 NNE 9 11 5 6 - - 0.0
13/09:10pm 18.2 14.6 3.0 36 7.1 NNE 11 13 6 7 - - 0.0
13/09:00pm 18.3 14.3 3.0 36 7.2 NNE 13 13 7 7 - - 0.0
13/08:50pm 18.4 14.8 2.9 35 7.2 NNE 11 13 6 7 - - 0.0
13/08:40pm 18.5 14.9 3.0 35 7.3 NNE 11 11 6 6 - - 0.0
13/08:30pm 18.5 14.5 3.0 35 7.3 NNE 13 15 7 8 - - 0.0
13/08:20pm 18.2 14.6 3.1 36 7.1 NNE 11 13 6 7 - - 0.0
13/08:10pm 18.0 14.4 3.2 37 6.9 NNE 11 13 6 7 - - 0.0
13/08:00pm 17.8 14.2 3.2 37 6.8 NE 11 13 6 7 - - 0.0
13/07:50pm 17.5 13.9 3.0 38 6.7 NE 11 11 6 6 - - 0.0
13/07:40pm 16.8 13.6 2.9 39 6.4 NE 9 11 5 6 - - 0.0
13/07:30pm 16.8 13.6 2.8 39 6.4 NE 9 9 5 5 - - 0.0
13/07:20pm 17.1 13.8 2.7 38 6.6 NE 9 9 5 5 - - 0.0
13/07:10pm 17.4 14.2 2.8 37 6.8 NNE 9 9 5 5 - - 0.0
13/07:00pm 18.0 14.7 2.4 35 7.2 NNE 9 9 5 5 - - 0.0
13/06:50pm 18.0 14.7 2.6 35 7.1 NNE 9 11 5 6 - - 0.0
13/06:40pm 18.2 14.9 2.4 34 7.3 NNE 9 9 5 5 - - 0.0
13/06:30pm 18.8 15.5 2.3 33 7.6 NNE 9 11 5 6 - - 0.0
13/06:20pm 19.3 16.0 2.2 32 7.9 NNE 9 9 5 5 - - 0.0
13/06:10pm 19.4 16.0 1.9 31 8.1 NNE 9 11 5 6 - - 0.0
13/06:00pm 19.7 16.3 2.0 30 8.2 NNE 9 9 5 5 - - 0.0
13/05:50pm 20.0 16.6 1.9 30 8.4 NNE 9 11 5 6 - - 0.0
13/05:40pm 20.4 17.0 1.8 29 8.6 NNE 9 11 5 6 - - 0.0
13/05:30pm 20.8 17.0 2.0 28 8.8 N 11 13 6 7 - - 0.0
13/05:20pm 21.2 17.0 1.8 27 9.1 N 13 17 7 9 - - 0.0
13/05:10pm 21.5 16.9 1.6 26 9.3 N 15 17 8 9 - - 0.0
13/05:00pm 21.8 17.2 1.3 25 9.5 N 15 19 8 10 - - 0.0
13/04:50pm 21.9 17.3 1.4 25 9.6 N 15 19 8 10 - - 0.0
13/04:40pm 22.2 17.6 1.7 26 9.6 N 15 19 8 10 - - 0.0
13/04:30pm 22.6 17.7 2.0 25 9.8 N 17 20 9 11 - - 0.0
13/04:20pm 23.1 19.0 2.2 25 10.0 NNE 13 17 7 9 - - 0.0
13/04:10pm 23.3 19.1 1.9 24 10.2 N 13 19 7 10 - - 0.0
13/04:00pm 23.2 18.7 1.9 24 10.1 N 15 20 8 11 - - 0.0
13/03:50pm 23.0 18.4 1.5 24 10.1 N 15 17 8 9 - - 0.0
13/03:40pm 22.1 17.1 1.6 26 9.6 N 17 20 9 11 - - 0.0
13/03:30pm 22.7 17.8 2.3 26 9.7 N 17 20 9 11 - - 0.0
13/03:20pm 23.4 19.0 2.5 25 10.1 NNE 15 19 8 10 - - 0.0
13/03:10pm 22.9 18.4 2.4 26 9.8 N 15 19 8 10 - - 0.0
13/03:00pm 22.4 18.7 2.4 27 9.5 NNE 11 15 6 8 - - 0.0
13/02:50pm 22.3 18.2 2.4 27 9.5 N 13 19 7 10 - - 0.0
13/02:40pm 22.4 18.3 2.3 26 9.6 NNE 13 17 7 9 - - 0.0
13/02:30pm 22.2 18.1 2.4 27 9.4 N 13 20 7 11 - - 0.0
13/02:20pm 22.7 19.1 2.9 27 9.6 N 11 15 6 8 - - 0.0
13/02:10pm 22.4 18.7 2.3 26 9.6 NNE 11 19 6 10 - - 0.0
13/02:00pm 21.5 17.4 2.0 27 9.2 N 13 19 7 10 - - 0.0
13/01:50pm 21.7 17.7 2.6 28 9.1 NW 13 17 7 9 - - 0.0
13/01:40pm 21.7 18.0 2.5 28 9.1 NW 11 17 6 9 - - 0.0
13/01:30pm 21.7 17.6 2.5 28 9.1 NNW 13 19 7 10 - - 0.0
13/01:20pm 21.3 17.7 2.9 29 8.8 N 11 17 6 9 - - 0.0
13/01:10pm 21.6 17.2 2.5 28 9.1 NNW 15 19 8 10 - - 0.0
13/01:00pm 21.7 17.7 2.6 28 9.1 NW 13 20 7 11 - - 0.0
13/12:50pm 21.1 17.1 2.9 30 8.7 NNW 13 19 7 10 - - 0.0
13/12:40pm 20.9 17.0 3.5 31 8.4 N 13 20 7 11 - - 0.0
13/12:30pm 21.4 17.2 3.7 31 8.6 N 15 19 8 10 - - 0.0
13/12:20pm 21.2 17.0 3.6 31 8.5 N 15 22 8 12 - - 0.0
13/12:10pm 20.8 16.3 4.1 33 8.1 N 17 22 9 12 - - 0.0
13/12:00pm 20.4 16.6 3.7 33 8.0 N 13 19 7 10 - - 0.0
13/11:50am 19.7 15.9 3.8 35 7.6 NNE 13 17 7 9 - - 0.0
13/11:40am 20.0 16.2 3.7 34 7.8 N 13 20 7 11 - - 0.0
13/11:30am 20.1 16.3 3.8 34 7.9 N 13 17 7 9 - - 0.0
13/11:20am 19.8 15.2 3.8 34 7.7 N 17 22 9 12 - - 0.0
13/11:10am 19.3 15.1 4.0 36 7.4 NNW 15 20 8 11 - - 0.0
13/11:00am 18.8 14.7 4.6 39 6.9 N 15 20 8 11 - - 0.0
13/10:50am 18.6 15.4 5.1 41 6.6 NNE 11 17 6 9 - - 0.0
13/10:40am 18.2 14.3 5.3 42 6.3 N 15 20 8 11 - - 0.0
13/10:30am 17.9 13.9 4.8 42 6.3 N 15 17 8 9 - - 0.0
13/10:20am 17.7 13.6 4.1 40 6.5 NNE 15 19 8 10 - - 0.0
13/10:10am 17.5 13.1 4.6 42 6.2 N 17 19 9 10 - - 0.0
13/10:00am 17.4 13.4 4.7 43 6.1 NNE 15 17 8 9 - - 0.0
13/09:50am 16.7 13.1 4.9 45 5.7 NNE 13 15 7 8 - - 0.0
13/09:40am 16.2 11.9 5.2 48 5.3 NNE 17 19 9 10 - - 0.0
13/09:30am 15.7 11.8 5.2 49 5.0 NNE 15 19 8 10 - - 0.0
13/09:20am 15.4 11.9 5.5 51 4.8 NE 13 17 7 9 - - 0.0
13/09:10am 15.0 11.5 5.6 53 4.5 NE 13 15 7 8 - - 0.0
13/09:00am 14.0 10.5 5.6 57 4.0 NE 13 17 7 9 - - 0.0
13/08:50am 13.4 9.9 5.5 59 3.7 NE 13 17 7 9 - - 0.0
13/08:40am 13.2 10.0 5.0 57 3.8 NE 11 15 6 8 - - 0.0
13/08:30am 12.7 10.2 4.9 59 3.6 NNE 7 11 4 6 - - 0.0
13/08:20am 12.1 8.8 4.7 60 3.4 NE 11 13 6 7 - - 0.0
13/08:10am 11.6 8.7 4.6 62 3.2 NE 9 13 5 7 - - 0.0
13/08:00am 10.5 8.6 5.0 69 2.5 N 4 4 2 2 - - 0.0
13/07:50am 9.5 7.5 4.6 71 2.2 N 4 4 2 2 - - 0.0
13/07:40am 8.0 6.0 4.2 77 1.7 NE 4 6 2 3 - - 0.0
13/07:30am 6.2 4.6 4.4 88 0.8 NNW 2 4 1 2 - - 0.0
13/07:20am 5.0 2.8 3.6 91 0.6 NNE 4 6 2 3 - - 0.0
13/07:10am 4.0 2.1 2.7 91 0.5 NNE 2 2 1 1 - - 0.0
13/07:00am 3.5 1.5 2.2 91 0.5 NNW 2 2 1 1 - - 0.0
13/06:50am 3.4 1.4 2.1 91 0.5 WNW 2 2 1 1 - - 0.0
13/06:40am 3.3 1.6 2.0 91 0.5 CALM 0 0 0 0 - - 0.0
13/06:30am 3.0 1.3 1.8 92 0.5 CALM 0 2 0 1 - - 0.0
13/06:20am 2.5 0.3 1.2 91 0.5 W 2 2 1 1 - - 0.0
13/06:10am 2.4 0.2 0.8 89 0.6 W 2 2 1 1 - - 0.0
13/06:00am 2.5 0.7 0.9 89 0.6 CALM 0 2 0 1 - - 0.0
13/05:50am 2.8 0.5 0.6 85 0.8 N 2 2 1 1 - - 0.0
13/05:40am 3.6 1.5 2.0 89 0.6 NE 2 2 1 1 - - 0.0
13/05:30am 3.8 1.4 2.4 91 0.6 NE 4 6 2 3 - - 0.0
13/05:20am 3.6 1.2 2.1 90 0.6 ENE 4 4 2 2 - - 0.0
13/05:10am 3.8 1.4 2.3 90 0.6 ENE 4 4 2 2 - - 0.0
13/05:00am 3.7 1.7 2.4 91 0.5 NE 2 4 1 2 - - 0.0
13/04:50am 3.7 2.1 2.4 91 0.5 CALM 0 0 0 0 - - 0.0
13/04:40am 3.5 1.8 2.0 90 0.6 CALM 0 2 0 1 - - 0.0
13/04:30am 3.4 1.3 1.5 87 0.7 W 2 2 1 1 - - 0.0
13/04:20am 3.9 1.8 1.9 87 0.8 W 2 2 1 1 - - 0.0
13/04:10am 3.8 2.1 2.0 88 0.7 CALM 0 0 0 0 - - 0.0
13/04:00am 3.8 2.1 2.0 88 0.7 CALM 0 2 0 1 - - 0.0
13/03:50am 4.0 2.1 2.6 91 0.6 ENE 2 2 1 1 - - 0.0
13/03:40am 4.0 2.1 2.6 91 0.6 NE 2 4 1 2 - - 0.0
13/03:30am 3.8 1.8 2.2 89 0.6 NNE 2 2 1 1 - - 0.0
13/03:20am 3.4 1.3 1.6 88 0.7 N 2 2 1 1 - - 0.0
13/03:10am 3.4 0.9 1.5 87 0.7 NW 4 4 2 2 - - 0.0
13/03:00am 3.6 1.4 1.1 84 1.0 NW 2 4 1 2 - - 0.0
13/02:50am 3.9 1.8 1.6 85 0.9 W 2 2 1 1 - - 0.0
13/02:40am 4.2 2.4 1.4 82 1.1 CALM 0 2 0 1 - - 0.0
13/02:30am 4.9 3.2 2.1 82 1.1 CALM 0 0 0 0 - - 0.0
13/02:20am 4.8 2.8 2.5 85 0.9 E 2 2 1 1 - - 0.0
13/02:10am 4.6 2.6 2.1 84 1.0 E 2 2 1 1 - - 0.0
13/02:00am 4.5 2.8 1.8 83 1.1 CALM 0 0 0 0 - - 0.0
13/01:50am 4.6 2.6 2.4 86 0.9 NNE 2 2 1 1 - - 0.0
13/01:40am 4.5 2.8 2.1 84 1.0 CALM 0 2 0 1 - - 0.0
13/01:30am 4.8 3.1 1.9 81 1.2 CALM 0 0 0 0 - - 0.0
13/01:20am 5.1 3.5 2.5 83 1.1 CALM 0 2 0 1 - - 0.0
13/01:10am 4.7 2.7 2.1 83 1.1 S 2 2 1 1 - - 0.0
13/01:00am 4.6 2.6 2.1 84 1.0 SSW 2 2 1 1 - - 0.0
13/12:50am 4.8 3.1 1.8 81 1.2 CALM 0 2 0 1 - - 0.0
13/12:40am 5.3 3.9 3.4 87 0.8 CALM 0 0 0 0 - - 0.0
13/12:30am 5.0 3.1 2.7 85 0.9 NW 2 2 1 1 - - 0.0
13/12:20am 5.1 3.4 2.1 81 1.2 CALM 0 2 0 1 - - 0.0
13/12:10am 5.6 3.5 1.9 77 1.5 NW 2 2 1 1 - - 0.0
13/12:00am 6.1 4.2 2.7 79 1.4 N 2 2 1 1 - - 0.0
 
Date/Time
EST
Temp
°C
App
Temp
°C
Dew
Point
°C
Rel
Hum
%
Delta-T
°C
Wind Press
QNH
hPa
Press
MSL
hPa
Rain since
9am
mm
Dir  Spd
km/h
Gust
km/h
Spd
kts
Gust
kts
12/11:50pm 6.5 4.5 2.5 75 1.7 NNE 2 2 1 1 - - 0.0
12/11:40pm 6.2 4.3 2.7 78 1.5 NE 2 2 1 1 - - 0.0
12/11:30pm 6.2 4.2 2.4 76 1.6 NE 2 2 1 1 - - 0.0
12/11:20pm 6.0 4.1 2.6 79 1.4 NNE 2 4 1 2 - - 0.0
12/11:10pm 5.9 4.1 3.3 83 1.1 N 2 4 1 2 - - 0.0
12/11:00pm 5.9 3.9 2.2 77 1.5 N 2 4 1 2 - - 0.0
12/10:50pm 6.2 4.3 2.8 79 1.4 N 2 4 1 2 - - 0.0
12/10:40pm 6.2 3.9 2.6 78 1.5 NNE 4 4 2 2 - - 0.0
12/10:30pm 6.3 4.3 2.5 77 1.6 NNW 2 4 1 2 - - 0.0
12/10:20pm 6.4 4.5 2.6 77 1.6 WNW 2 2 1 1 - - 0.0
12/10:10pm 6.8 4.9 2.7 75 1.7 WNW 2 2 1 1 - - 0.0
12/10:00pm 6.8 4.8 2.3 73 1.9 NNW 2 4 1 2 - - 0.0
12/09:50pm 6.9 4.5 2.2 72 2.0 NW 4 4 2 2 - - 0.0
12/09:40pm 7.3 4.9 2.1 69 2.2 NW 4 4 2 2 - - 0.0
12/09:30pm 7.0 4.2 2.2 71 2.0 NW 6 6 3 3 - - 0.0
12/09:20pm 6.8 4.4 2.4 73 1.8 NW 4 4 2 2 - - 0.0
12/09:10pm 6.7 4.3 2.2 73 1.9 NNW 4 4 2 2 - - 0.0
12/09:00pm 6.6 5.0 2.4 74 1.7 CALM 0 2 0 1 - - 0.0
12/08:50pm 7.0 4.9 1.9 70 2.1 SSW 2 2 1 1 - - 0.0
12/08:40pm 7.8 5.7 2.0 67 2.4 SSE 2 2 1 1 - - 0.0
12/08:30pm 8.5 6.6 2.6 66 2.5 SE 2 4 1 2 - - 0.0
12/08:20pm 8.5 6.2 2.6 66 2.5 SSE 4 4 2 2 - - 0.0
12/08:10pm 9.8 7.5 2.5 60 3.1 SE 4 4 2 2 - - 0.0
12/08:00pm 9.5 7.2 2.7 62 2.9 SE 4 4 2 2 - - 0.0
12/07:50pm 9.2 6.9 2.9 65 2.7 SSE 4 4 2 2 - - 0.0
12/07:40pm 9.7 7.3 2.4 60 3.1 S 4 4 2 2 - - 0.0
12/07:30pm 9.8 7.5 2.7 61 3.1 S 4 4 2 2 - - 0.0
12/07:20pm 10.8 8.5 3.0 58 3.4 SSE 4 6 2 3 - - 0.0
12/07:10pm 11.4 9.2 3.6 58 3.5 SSE 4 6 2 3 - - 0.0
12/07:00pm 11.9 9.3 3.0 54 3.9 SSE 6 6 3 3 - - 0.0
12/06:50pm 12.3 9.6 2.6 51 4.3 SSE 6 6 3 3 - - 0.0
12/06:40pm 11.9 9.2 2.6 53 4.1 S 6 6 3 3 - - 0.0
12/06:30pm 12.1 9.4 2.6 52 4.2 S 6 6 3 3 - - 0.0
12/06:20pm 13.0 10.1 2.7 49 4.6 SSW 7 9 4 5 - - 0.0
12/06:10pm 13.6 10.9 2.8 48 4.8 SSW 6 9 3 5 - - 0.0
12/06:00pm 14.4 11.7 2.9 46 5.2 SSW 6 7 3 4 - - 0.0
12/05:50pm 15.3 12.1 3.2 44 5.5 SSW 9 9 5 5 - - 0.0
12/05:40pm 16.4 12.9 3.3 41 6.1 SSW 11 11 6 6 - - 0.0
12/05:30pm 17.0 13.5 3.3 40 6.4 SSW 11 13 6 7 - - 0.0
12/05:20pm 17.5 13.6 3.3 38 6.6 SSW 13 17 7 9 - - 0.0
12/05:10pm 17.8 13.8 3.0 37 6.9 SSW 13 15 7 8 - - 0.0
12/05:00pm 18.0 14.4 3.2 37 6.9 SSW 11 15 6 8 - - 0.0
12/04:50pm 18.1 13.8 3.1 36 7.0 SSW 15 20 8 11 - - 0.0
12/04:40pm 18.2 13.8 2.8 35 7.2 SSW 15 20 8 11 - - 0.0
12/04:30pm 18.3 14.3 3.1 36 7.1 S 13 15 7 8 - - 0.0
12/04:20pm 18.6 13.9 2.9 35 7.3 SSW 17 20 9 11 - - 0.0
12/04:10pm 18.5 14.2 3.1 36 7.2 SSW 15 20 8 11 - - 0.0
12/04:00pm 18.6 13.9 3.1 35 7.3 SSW 17 24 9 13 - - 0.0
12/03:50pm 18.8 14.9 3.2 35 7.4 SSW 13 20 7 11 - - 0.0
12/03:40pm 18.6 13.5 3.3 36 7.2 SSW 19 24 10 13 - - 0.0
12/03:30pm 18.9 14.6 3.4 35 7.3 SSW 15 20 8 11 - - 0.0
12/03:20pm 18.8 14.9 3.3 35 7.3 S 13 20 7 11 - - 0.0
12/03:10pm 18.6 14.4 3.6 37 7.1 SSW 15 28 8 15 - - 0.0
12/03:00pm 18.7 14.1 3.6 36 7.2 SSW 17 24 9 13 - - 0.0
12/02:50pm 18.6 14.6 3.0 35 7.3 SSW 13 19 7 10 - - 0.0
12/02:40pm 18.7 14.0 3.3 36 7.3 SW 17 22 9 12 - - 0.0
12/02:30pm 18.3 14.7 3.1 36 7.1 SW 11 20 6 11 - - 0.0
12/02:20pm 18.3 14.5 3.7 38 6.9 SSW 13 19 7 10 - - 0.0
12/02:10pm 18.4 14.4 2.8 35 7.3 SSW 13 19 7 10 - - 0.0
12/02:00pm 18.4 15.2 3.0 36 7.2 SSW 9 13 5 7 - - 0.0
12/01:50pm 18.1 15.0 3.7 38 6.8 SSW 9 13 5 7 - - 0.0
12/01:40pm 17.9 15.1 3.2 37 6.9 SSW 7 13 4 7 - - 0.0
12/01:30pm 18.3 15.5 3.0 36 7.2 SSW 7 13 4 7 - - 0.0
12/01:20pm 17.4 14.3 3.4 39 6.6 S 9 17 5 9 - - 0.0
12/01:10pm 17.4 14.1 2.7 37 6.8 S 9 15 5 8 - - 0.0
12/01:00pm 17.3 14.5 3.3 39 6.5 SSW 7 15 4 8 - - 0.0
12/12:50pm 17.6 14.8 2.9 37 6.8 SW 7 11 4 6 - - 0.0
12/12:40pm 16.8 14.0 2.9 39 6.4 W 7 9 4 5 - - 0.0
12/12:30pm 16.5 13.3 2.9 40 6.3 S 9 13 5 7 - - 0.0
12/12:20pm 16.8 14.0 3.0 39 6.4 W 7 11 4 6 - - 0.0
12/12:10pm 16.6 13.1 3.5 41 6.1 WSW 11 15 6 8 - - 0.0
12/12:00pm 16.1 12.9 3.1 41 6.0 SSW 9 13 5 7 - - 0.0
12/11:50am 15.8 13.0 3.3 43 5.8 SSE 7 11 4 6 - - 0.0
12/11:40am 15.6 12.5 3.6 44 5.6 S 9 13 5 7 - - 0.0
12/11:30am 15.4 11.9 3.4 44 5.5 S 11 15 6 8 - - 0.0
12/11:20am 15.0 11.4 3.2 45 5.4 S 11 17 6 9 - - 0.0
12/11:10am 15.2 11.7 3.5 45 5.4 S 11 15 6 8 - - 0.0
12/11:00am 14.7 10.5 3.6 47 5.1 S 15 19 8 10 - - 0.0
12/10:50am 14.5 10.7 3.7 48 5.0 S 13 17 7 9 - - 0.0
12/10:40am 14.1 10.3 3.8 50 4.7 SSE 13 19 7 10 - - 0.0
12/10:30am 14.1 10.4 4.7 53 4.4 S 13 17 7 9 - - 0.0
12/10:20am 13.8 10.9 4.8 54 4.2 S 9 13 5 7 - - 0.0
12/10:10am 13.2 9.6 4.9 57 3.9 S 13 19 7 10 - - 0.0
12/10:00am 13.0 9.4 5.0 58 3.7 S 13 15 7 8 - - 0.0
12/09:50am 12.8 8.5 5.2 60 3.6 S 17 19 9 10 - - 0.0
12/09:40am 12.5 8.6 5.2 61 3.4 S 15 19 8 10 - - 0.0
12/09:30am 12.3 8.4 5.3 62 3.3 S 15 19 8 10 - - 0.0
12/09:20am 11.7 8.1 5.2 64 3.0 S 13 17 7 9 - - 0.0
12/09:10am 11.4 7.5 5.2 65 2.9 S 15 20 8 11 - - 0.0
12/09:00am 11.2 7.3 5.4 67 2.7 S 15 19 8 10 - - 0.0
12/08:50am 10.7 6.8 5.2 69 2.5 S 15 17 8 9 - - 0.0
12/08:40am 10.5 6.6 5.2 70 2.4 S 15 20 8 11 - - 0.0
12/08:30am 9.9 6.0 5.2 72 2.2 S 15 19 8 10 - - 0.0
12/08:20am 9.5 5.5 5.0 73 2.0 S 15 20 8 11 - - 0.0
12/08:10am 9.1 5.1 4.8 74 1.9 SSW 15 17 8 9 - - 0.0
12/08:00am 8.6 4.2 4.7 76 1.7 SSW 17 20 9 11 - - 0.0
12/07:50am 8.5 4.8 4.7 77 1.7 SSW 13 17 7 9 - - 0.0
12/07:40am 8.0 4.7 4.6 79 1.5 SSW 11 15 6 8 - - 0.0
12/07:30am 7.3 4.7 4.4 82 1.3 SW 7 13 4 7 - - 0.0
12/07:20am 6.1 3.7 4.1 87 0.9 SSW 6 7 3 4 - - 0.0
12/07:10am 4.6 2.3 3.0 89 0.7 S 4 6 2 3 - - 0.0
12/07:00am 3.8 1.0 2.1 89 0.7 S 6 7 3 4 - - 0.0
12/06:50am 3.6 0.7 1.7 87 0.8 S 6 7 3 4 - - 0.0
12/06:40am 3.7 1.2 1.8 87 0.8 S 4 6 2 3 - - 0.0
12/06:30am 3.6 1.1 1.7 87 0.8 S 4 6 2 3 - - 0.0
12/06:20am 3.7 0.8 1.5 85 0.9 S 6 6 3 3 - - 0.0
12/06:10am 4.0 1.2 1.8 85 0.9 S 6 6 3 3 - - 0.0
12/06:00am 3.8 0.9 1.7 86 0.8 SSW 6 6 3 3 - - 0.0
12/05:50am 4.0 0.9 1.6 84 1.0 SSW 7 7 4 4 - - 0.0
12/05:40am 4.4 1.6 2.0 84 1.0 S 6 7 3 4 - - 0.0
12/05:30am 4.2 1.8 2.1 86 0.8 SSE 4 6 2 3 - - 0.0
12/05:20am 4.4 2.0 2.0 84 1.0 SSE 4 6 2 3 - - 0.0
12/05:10am 4.4 1.6 2.0 84 1.0 SSW 6 7 3 4 - - 0.0
12/05:00am 4.6 2.2 2.1 84 1.0 S 4 6 2 3 - - 0.0
12/04:50am 4.5 1.5 2.0 84 1.0 SSW 7 11 4 6 - - 0.0
12/04:40am 4.4 1.0 1.8 83 1.0 SW 9 11 5 6 - - 0.0
12/04:30am 4.3 1.9 2.0 85 0.9 SSE 4 6 2 3 - - 0.0
12/04:20am 5.1 2.6 1.7 79 1.4 SSW 4 6 2 3 - - 0.0
12/04:10am 5.6 2.3 2.5 80 1.3 SW 9 11 5 6 - - 0.0
12/04:00am 5.7 2.4 2.6 80 1.3 SW 9 11 5 6 - - 0.0
12/03:50am 5.8 2.5 2.6 80 1.3 SW 9 11 5 6 - - 0.0
12/03:40am 5.5 2.2 2.4 80 1.3 SW 9 11 5 6 - - 0.0
12/03:30am 5.2 1.8 2.0 80 1.3 SW 9 9 5 5 - - 0.0
12/03:20am 5.5 2.1 2.1 79 1.4 SW 9 9 5 5 - - 0.0
12/03:10am 5.8 2.5 2.2 78 1.5 SW 9 11 5 6 - - 0.0
12/03:00am 6.1 2.8 2.3 76 1.6 SW 9 11 5 6 - - 0.0
12/02:50am 6.3 2.6 2.4 76 1.6 SW 11 13 6 7 - - 0.0
12/02:40am 6.2 2.1 2.3 76 1.6 SW 13 13 7 7 - - 0.0
12/02:30am 5.8 1.7 2.1 77 1.5 SW 13 13 7 7 - - 0.0
12/02:20am 5.1 0.9 1.7 79 1.4 SW 13 13 7 7 - - 0.0
12/02:10am 5.7 2.2 1.5 74 1.7 SW 9 11 5 6 - - 0.0
12/02:00am 5.9 3.0 1.7 74 1.7 SW 6 7 3 4 - - 0.0
12/01:50am 6.0 3.2 1.8 74 1.7 SW 6 7 3 4 - - 0.0
12/01:40am 6.3 3.3 1.9 73 1.8 WSW 7 9 4 5 - - 0.0
12/01:30am 6.6 2.9 2.1 73 1.9 WSW 11 13 6 7 - - 0.0
12/01:20am 6.6 2.5 2.1 73 1.9 SW 13 15 7 8 - - 0.0
12/01:10am 6.8 2.7 2.0 71 2.0 SW 13 15 7 8 - - 0.0
12/01:00am 7.2 3.1 2.1 70 2.1 SW 13 15 7 8 - - 0.0
12/12:50am 7.1 3.0 2.1 70 2.1 SW 13 15 7 8 - - 0.0
12/12:40am 6.6 2.5 2.1 73 1.9 SW 13 13 7 7 - - 0.0
12/12:30am 6.3 2.2 2.1 74 1.7 SW 13 15 7 8 - - 0.0
12/12:20am 6.0 1.9 2.0 75 1.6 SW 13 13 7 7 - - 0.0
12/12:10am 5.8 2.0 1.9 76 1.6 SW 11 13 6 7 - - 0.0
12/12:00am 5.5 1.3 1.8 77 1.5 WSW 13 15 7 8 - - 0.0
 
Date/Time
EST
Temp
°C
App
Temp
°C
Dew
Point
°C
Rel
Hum
%
Delta-T
°C
Wind Press
QNH
hPa
Press
MSL
hPa
Rain since
9am
mm
Dir  Spd
km/h
Gust
km/h
Spd
kts
Gust
kts
11/11:50pm 5.5 1.7 1.5 75 1.6 WSW 11 11 6 6 - - 0.0
11/11:40pm 5.5 1.7 1.5 75 1.6 SW 11 13 6 7 - - 0.0
11/11:30pm 5.8 2.0 1.5 74 1.7 SW 11 11 6 6 - - 0.0
11/11:20pm 6.7 3.8 1.7 70 2.0 SSW 6 9 3 5 - - 0.0
11/11:10pm 6.7 3.8 1.6 70 2.1 SSW 6 6 3 3 - - 0.0
11/11:00pm 6.7 3.8 1.7 70 2.0 SW 6 7 3 4 - - 0.0
11/10:50pm 7.0 3.6 1.8 69 2.1 SW 9 11 5 6 - - 0.0
11/10:40pm 7.4 3.6 1.8 67 2.3 SW 11 11 6 6 - - 0.0
11/10:30pm 7.7 3.9 1.9 67 2.4 SW 11 13 6 7 - - 0.0
11/10:20pm 8.5 5.1 1.9 63 2.8 SW 9 11 5 6 - - 0.0
11/10:10pm 9.0 5.6 2.0 61 3.0 SW 9 11 5 6 - - 0.0
11/10:00pm 9.2 5.0 1.9 60 3.1 SW 13 13 7 7 - - 0.0
11/09:50pm 9.4 5.3 2.0 60 3.1 SW 13 15 7 8 - - 0.0
11/09:40pm 9.8 5.6 1.9 58 3.4 SW 13 15 7 8 - - 0.0
11/09:30pm 9.5 5.3 1.8 58 3.2 SW 13 15 7 8 - - 0.0
11/09:20pm 9.5 5.3 1.8 58 3.2 SW 13 15 7 8 - - 0.0
11/09:10pm 9.8 5.6 1.8 57 3.4 SW 13 15 7 8 - - 0.0
11/09:00pm 10.0 5.5 1.9 57 3.4 SW 15 15 8 8 - - 0.0
11/08:50pm 10.4 5.8 1.8 55 3.7 SW 15 15 8 8 - - 0.0
11/08:40pm 10.7 5.8 1.7 53 3.8 WSW 17 17 9 9 - - 0.0
11/08:30pm 10.5 5.5 1.4 53 3.8 WSW 17 19 9 10 - - 0.0
11/08:20pm 9.1 4.4 1.0 57 3.3 WSW 15 17 8 9 - - 0.0
11/08:10pm 8.8 4.9 0.9 57 3.2 WSW 11 13 6 7 - - 0.0
11/08:00pm 9.1 4.7 0.6 55 3.5 WSW 13 15 7 8 - - 0.0
11/07:50pm 8.5 4.2 0.7 58 3.2 WSW 13 15 7 8 - - 0.0
11/07:40pm 8.8 4.4 0.3 55 3.4 W 13 13 7 7 - - 0.0
11/07:30pm 8.8 4.7 0.0 54 3.5 W 11 11 6 6 - - 0.0
11/07:20pm 9.2 5.1 0.0 52 3.7 WSW 11 11 6 6 - - 0.0
11/07:10pm 9.6 5.5 0.1 51 3.9 WSW 11 11 6 6 - - 0.0
11/07:00pm 10.0 6.3 0.0 50 4.1 WSW 9 9 5 5 - - 0.0
11/06:50pm 10.6 6.5 0.0 48 4.3 WSW 11 13 6 7 - - 0.0
11/06:40pm 11.1 7.0 -0.1 46 4.6 WSW 11 13 6 7 - - 0.0
11/06:30pm 11.7 6.9 -0.1 44 4.9 SW 15 15 8 8 - - 0.0
11/06:20pm 12.1 6.9 -0.1 43 5.1 SW 17 19 9 10 - - 0.0
11/06:10pm 12.7 7.1 -0.1 41 5.3 SW 19 20 10 11 - - 0.0
11/06:00pm 13.0 7.8 0.0 41 5.4 WSW 17 20 9 11 - - 0.0
11/05:50pm 13.4 7.8 0.1 40 5.6 SW 19 22 10 12 - - 0.0
11/05:40pm 14.0 7.4 -0.2 37 6.0 SW 24 30 13 16 - - 0.0
11/05:30pm 14.6 7.7 -0.1 36 6.2 WSW 26 32 14 17 - - 0.0
11/05:20pm 14.9 7.9 -0.4 35 6.5 WSW 26 35 14 19 - - 0.0
11/05:10pm 14.3 8.7 0.1 38 6.0 SW 19 22 10 12 - - 0.0
11/05:00pm 14.4 8.6 0.0 37 6.1 SW 20 28 11 15 - - 0.0
11/04:50pm 14.1 7.9 -0.1 37 6.0 WSW 22 28 12 15 - - 0.0
11/04:40pm 14.5 7.6 0.3 38 6.1 WSW 26 32 14 17 - - 0.0
11/04:30pm 14.6 7.3 0.3 37 6.1 WSW 28 32 15 17 - - 0.0
11/04:20pm 15.3 7.6 0.0 35 6.6 WSW 30 35 16 19 - - 0.0
11/04:10pm 15.2 7.8 -0.6 34 6.7 SW 28 32 15 17 - - 0.0
11/04:00pm 14.4 6.3 -0.4 36 6.2 SW 32 35 17 19 - - 0.0
11/03:50pm 14.8 7.1 0.0 36 6.3 SW 30 33 16 18 - - 0.0
11/03:40pm 14.5 7.2 -0.2 36 6.2 SW 28 32 15 17 - - 0.0

Other formats

Comma delimited format used in spreadsheet applications
http://www.bom.gov.au/fwo/IDN60801/IDN60801.99792.axf

JavaScript Object Notation format (JSON) in row-major order
http://www.bom.gov.au/fwo/IDN60801/IDN60801.99792.json

Data quality

Most of these data are generated automatically and are frequently updated. Quality checks on data are not normally performed. It is possible for incorrect values to appear. Refer to information at About Latest Weather Observations and please check the disclaimer before using these data.